Timeline UpdatesTrip UpdatesNews PostsPvt PostsTravel TipsAdmin PostsConv PostsFollowed PostsChat RequestsBlog PostsPNR Posts

Disclaimer
Search
 
 
Fri Apr 25, 2014 04:06:40 ISTHomeTrainsΣChainsAtlasPNRForumGalleryNewsFAQTripsMembersLoginFeedback
No Recent News for this Train
Other Trains in the News **new
Latest...
..
Tue Mar 18, 2014 (09:17AM)
⇐ Return Journey: Train# 13307

13308/Ganga Sutlej Express

Jul 05 2013 (2:07PM)
Change Departure Station:
Change Arrival Station:
Post a Train Travel TipPost a Train Travel Tip **new
Post a Comment/Question/Picture/VideoPost a Comment/Question/Picture/Video
Pantry/Catering
✕ NO Pantry Car
✕ NO Catering
RSA - Rake Sharing
No Rake Sharing.
Rake/Coach Composition
SLR-GEN-GEN-S1-S2-S3-S4-S5-S6-S7-S8-B1-A1-GEN-GEN-GEN-GEN-HCPV-SLR>Loco
Loco
LDH-WDM 3A
News    PNR    Forum    Time-Table    Availability    Fare Chart    Map    Arr/Dep History    Trips    Gallery    ΣChains    X/O    Timeline    
Travel Time: 17h 45m    34 halts    Distance: 857 km    Avg Speed: 48 km/hr
Type: Mail/Express
Zone: ECR/East Central
Departs @ 18:25 (Avg 2m late)
Platform# 4
SMTWTFS
Firozpur Cantt. Junction/FZR 
Arrives @ 12:10 +1 night (Avg 22m late)
Platform# 2
SMTWTFS
Lucknow Charbagh/LKO 

34 halts. 133 intermediate Stations between Firozpur Cantt. Junction and Lucknow Charbagh

Show ALL intermediate Stations  Show Old Time-Table

#CodeStation NameX/OArrivesAvgDepartsAvgHaltPFDay#KmSpeedElevZoneAddress
1FZR»Firozpur Cantt. Junction (5)»  -18:25+2410.069200mNRFirozpur Cantt 152001, Punjab
2MXHMakhuX  19:01+1219:03+142m--141.337203mNRMakhu, Punjab
3LNKLohian Khas Junction  19:43+319:45+52m--165.853216mNRMalsian Rd, Punjab
4MQSMalsian ShahkotX  20:08+320:10+32m--185.931228mNRShahkot-Moga Rd, Punjab
5NRONakodar Junction  20:33+320:35+32m--197.768231mNRNakodar, Punjab
6NRMNurmahal  20:46+320:48+32m--1110.134237mNRPhilur Nurmahal Rd, Punjab
7BZGBilga  20:58+921:00+92m--1115.847238mNRBilga, Punjab
8PHRPhillaur Junction (3)  21:18+1121:20+132m11129.952246mNRPhillaur, Punjab
9LDHLudhiana Junction (7)  21:35+1721:45+2010m31143.021246mNRLudhiana 141001, Punjab
10DDLDhandari Kalan (3)X  22:06+1522:08+152m21150.562254mNRDhandari Kalan, Punjab
11KNNKhanna (3)  22:42+1622:44+162m21185.961269mNRNH 1, Punjab
12GVGMandi Gobindgarh (2)X  22:52+1722:54+172m11194.053268mNRMandi Gobindgarh, Punjab
13SIRSirhind Junction (3)  23:05+1723:07+172m21203.871271mNRSirhind, Punjab
14RPJRajpura Junction (3)X  23:28+1923:30+192m21228.661272mNRNH-1, Punjab
15UBCAmbala City (3)  23:50+1623:52+162m11249.120273mNRNH-1, Haryana
16UMBAmbala Cantt. Junction (7)  00:15+1100:25+1110m12256.671278mNRAmbala 133001, Haryana
17RAABarara (2)X  00:46+1400:48+142m12281.463279mNRBarara, Haryana
18JUDYamunanagar-Jagadhri (3)X  01:13+1301:15+162m22307.730275mNRYamunanagar, Haryana
19SRESaharanpur Junction (6)X  02:15+202:25+310m32337.869276mNRSaharanpur, Uttar Pradesh
20RKRoorkee (3)X  02:55+1302:57+152m12372.546264mNRRoorkee - 247667, Uttarakhand
21LRJLaksar Junction (4)X  03:20+1103:25+115m--2390.372238mNRLaksar, Uttarakhand
22NBDNajibabad Junction (3)X  04:00+1004:05+105m12432.284269mNRNajibabad, Uttar Pradesh
23NGGNagina (3)  04:21+1804:23+182m--2454.763247mNRNagina, Uttar Pradesh
24DPRDhampurX  04:39+2004:41+202m--2471.463236mNRDhampur, Uttar Pradesh
25SEOSeohara  04:54+2004:56+202m--2485.266224mNRSeohara, Uttar Pradesh
26KNTKanth  05:11+2205:13+222m--2501.834221mNRKanth, Uttar Pradesh
27MBMoradabad Junction (7)X  06:05+706:15+1210m12531.255201mNRMoradabad, Uttar Pradesh
28RMURampur Junction (3)  06:45+1606:47+202m--2558.462190mNRRampur, Uttar Pradesh
29BEBareilly Junction (4)  07:48+1907:53+205m--2621.575174mNRBareilly, Uttar Pradesh
30PMRPitambarpur  08:09+2908:11+292m--2641.363171mNRPitambarpur, Uttar Pradesh
31TLHTilharX  08:42+2808:44+282m--2673.847163mNRTilhar, Uttar Pradesh
32SPNShahjahanpur Junction (3)  09:07+2509:12+255m--2692.077156mNRShahjahanpur, Uttar Pradesh
33AJIAnjhi Shahabad  09:36+3209:38+322m--2722.872148mNRAnjhi Shahabad, Uttar Pradesh
34HRIHardoi (5)X  10:05+3010:07+322m32755.064146mNRHardoi, Uttar Pradesh
35BLMBalamu Junction (4)  10:38+2610:40+262m--2788.046139mNRBalamau, Uttar Pradesh
36LKO•Lucknow Charbagh (9)•  12:10+2212:25+2315m22856.843123mNRCharbagh, Uttar Pradesh
37BBKBarabanki Junction (4)X  13:05+2913:07+302m--2885.474122mNRPin-225001, Uttar Pradesh
38DYDDaryabadX  13:38+4013:40+422m--2923.464116mNRFaizabad Rd, Uttar Pradesh
39PTHPatranga  13:48+4513:50+442m--2931.973113mNRFaizabad Rd, Uttar Pradesh
40RDLRudauli (2)  14:02+4714:04+472m--2946.555112mNRRudauli, Uttar Pradesh
41SLWSohwal  14:29+4614:31+452m--2969.448107mNRFaizabad Rd, Uttar Pradesh
42FDFaizabad Junction (5)  14:50+5314:55+585m--2984.614104mNRFaizabad, Uttar Pradesh
43ACNDAcharya Narendra Dev NagarX  15:04+1:0015:06+1:012m--2986.818104mNRFaizabad, Uttar Pradesh
44AYAyodhya Junction (3)X  15:21+5615:23+572m--2991.35698mNRAyodhya, Uttar Pradesh
45GGJGoshainGanj (3)  15:57+1:0015:59+1:002m--21023.04498mNRGoshainganj, Uttar Pradesh
46ABPAkbarpur (2)X  16:29+5416:31+572m--21045.24492mNRAkbarpur, Uttar Pradesh
47MLPRMalipur (2)X  16:57+5416:59+552m--21064.34792mNRMalipur, Uttar Pradesh
48BWIBilwai (1)X  17:17+5717:19+1:002m121078.42591mNRBilwai, Uttar Pradesh
49SHGShahganj Junction (4)  17:45+4817:49+514m321089.35390mNRShahganj, Uttar Pradesh
50KSKheta Sarai (1)X  18:01+5218:03+522m121100.06488mNRKheta Sarai, Uttar Pradesh
51MIHMihrawan (1)  18:13+5318:15+522m121110.66088mNRChak Bhavani Shanker, Uttar Pradesh
52JNUJaunpur Junction (5)  18:27+5718:29+592m121122.73983mNRJaunpur, Uttar Pradesh
53ZBDZafarabad Junction (4)X  18:39+1:0118:41+1:012m--21129.13883mNRNational Highway 56, Uttar Pradesh
54JLLJalalGanj (2)  19:00+5919:02+582m--21141.22787mNRJalalganj Railway Station, Uttar Pradesh
55BSBVaranasi Junction (9)X  20:30+2420:50+2720m821180.33282mNRVaranasi, Uttar Pradesh
56KEIKashi (3)  21:00+2921:03+303m--21185.71685mNRVaranasi, Uttar Pradesh
57MGSMughal Sarai Junction (8)O  21:45+2322:05+2820m121196.66083mECRMughalsarai 232101, Uttar Pradesh
58SYJSaidrajaX  22:31+3422:33+372m--21222.48680mECRSaiyedraja, Uttar Pradesh
59BBUBhabua Road (4)  22:53+3822:55+382m--21251.28480mECR06187-222222, Bihar
60KTQKudra (2)X  23:11+4023:13+422m--21273.58092mECRKudra, Bihar
61SSMSasaram Junction (4)  23:32+4323:34+442m--21298.862111mECR06184-222051, Bihar
62DOSDehri On Sone (6)  23:51+4423:53+442m--21316.477114mECRRohtas(06184-253154), Bihar
63AUBRAnugraha Narayan Road (4)X  00:06+4800:08+482m--31333.063104mECR06186-285271, Bihar
64GAYAGaya Junction (9)  01:13+3601:18+375m231401.562117mECR0631-2220283, Bihar
65KQRKoderma Junction (7)X  02:32+4402:34+452m--31477.883399mECR06534-222410 Koderma, Jharkhand
66HZDHazaribagh Road (3)  03:09+4403:11+452m--31526.274330mECRHazaribagh, Jharkhand
67PNMEParasnath (5)X  03:33+4303:34+451m--31553.237282mECRGiridih 06532-233419, Jharkhand
68GMONetaji SC Bose Gomoh Junction (6)  04:03+3704:08+375m--31571.383239mECRGomoh, Jharkhand
69TETTetulmari  04:23+3904:25+382m--31591.918225mECRTetulmari, Jharkhand
70DHNDhanbad Junction (8)  04:55+27-131601.1-235mECR2319801. Div. HQ ECR, Jharkhand
Scroll to Top
Scroll to Bottom